sensor_id;sensor_type;location;lat;lon;timestamp;temperature;humidity
34766;DHT22;20984;43.508;1.504;2022-11-22T00:00:19;7.00;99.90
34766;DHT22;20984;43.508;1.504;2022-11-22T00:02:45;7.00;99.90
34766;DHT22;20984;43.508;1.504;2022-11-22T00:05:11;7.00;99.90
34766;DHT22;20984;43.508;1.504;2022-11-22T00:07:38;7.00;99.90
34766;DHT22;20984;43.508;1.504;2022-11-22T00:10:05;6.90;99.90
34766;DHT22;20984;43.508;1.504;2022-11-22T00:12:32;6.90;99.90
34766;DHT22;20984;43.508;1.504;2022-11-22T00:14:58;6.90;99.90
34766;DHT22;20984;43.508;1.504;2022-11-22T00:17:23;6.90;99.90
34766;DHT22;20984;43.508;1.504;2022-11-22T00:19:49;6.90;99.90
34766;DHT22;20984;43.508;1.504;2022-11-22T00:22:16;6.80;99.90
34766;DHT22;20984;43.508;1.504;2022-11-22T00:24:42;6.90;99.90
34766;DHT22;20984;43.508;1.504;2022-11-22T00:27:11;7.00;99.90
34766;DHT22;20984;43.508;1.504;2022-11-22T00:29:36;7.00;99.90
34766;DHT22;20984;43.508;1.504;2022-11-22T00:32:02;7.00;99.90
34766;DHT22;20984;43.508;1.504;2022-11-22T00:34:28;7.00;99.90
34766;DHT22;20984;43.508;1.504;2022-11-22T00:36:54;7.10;99.90
34766;DHT22;20984;43.508;1.504;2022-11-22T00:39:20;7.00;99.90
34766;DHT22;20984;43.508;1.504;2022-11-22T00:41:45;7.00;99.90
34766;DHT22;20984;43.508;1.504;2022-11-22T00:44:11;6.90;99.90
34766;DHT22;20984;43.508;1.504;2022-11-22T00:46:37;6.90;99.90
34766;DHT22;20984;43.508;1.504;2022-11-22T00:49:03;6.90;99.90
34766;DHT22;20984;43.508;1.504;2022-11-22T00:51:29;6.80;99.90
34766;DHT22;20984;43.508;1.504;2022-11-22T00:53:54;6.80;99.90
34766;DHT22;20984;43.508;1.504;2022-11-22T00:56:20;6.80;99.90
34766;DHT22;20984;43.508;1.504;2022-11-22T00:58:46;6.70;99.90
34766;DHT22;20984;43.508;1.504;2022-11-22T01:01:12;6.70;99.90
34766;DHT22;20984;43.508;1.504;2022-11-22T01:03:37;6.80;99.90
34766;DHT22;20984;43.508;1.504;2022-11-22T01:06:03;6.80;99.90
34766;DHT22;20984;43.508;1.504;2022-11-22T01:08:29;6.90;99.90
34766;DHT22;20984;43.508;1.504;2022-11-22T01:10:59;6.90;99.90
34766;DHT22;20984;43.508;1.504;2022-11-22T01:13:27;6.70;99.90
34766;DHT22;20984;43.508;1.504;2022-11-22T01:15:57;6.70;99.90
34766;DHT22;20984;43.508;1.504;2022-11-22T01:18:22;6.60;99.90
34766;DHT22;20984;43.508;1.504;2022-11-22T01:20:48;6.60;99.90
34766;DHT22;20984;43.508;1.504;2022-11-22T01:23:14;6.60;99.90
34766;DHT22;20984;43.508;1.504;2022-11-22T01:25:42;6.60;99.90
34766;DHT22;20984;43.508;1.504;2022-11-22T01:28:09;6.70;99.90
34766;DHT22;20984;43.508;1.504;2022-11-22T01:30:35;6.70;99.90
34766;DHT22;20984;43.508;1.504;2022-11-22T01:33:00;6.70;99.90
34766;DHT22;20984;43.508;1.504;2022-11-22T01:35:26;6.70;99.90
34766;DHT22;20984;43.508;1.504;2022-11-22T01:37:52;6.70;99.90
34766;DHT22;20984;43.508;1.504;2022-11-22T01:40:18;6.60;99.90
34766;DHT22;20984;43.508;1.504;2022-11-22T01:42:55;6.60;99.90
34766;DHT22;20984;43.508;1.504;2022-11-22T01:48:00;6.50;99.90
34766;DHT22;20984;43.508;1.504;2022-11-22T01:50:29;6.50;99.90
34766;DHT22;20984;43.508;1.504;2022-11-22T01:52:59;6.50;99.90
34766;DHT22;20984;43.508;1.504;2022-11-22T01:55:26;6.50;99.90
34766;DHT22;20984;43.508;1.504;2022-11-22T01:57:52;6.60;99.90
34766;DHT22;20984;43.508;1.504;2022-11-22T02:00:18;6.60;99.90
34766;DHT22;20984;43.508;1.504;2022-11-22T02:02:54;6.60;99.90
34766;DHT22;20984;43.508;1.504;2022-11-22T02:05:23;6.60;99.90
34766;DHT22;20984;43.508;1.504;2022-11-22T02:08:06;6.60;99.90
34766;DHT22;20984;43.508;1.504;2022-11-22T02:10:36;6.60;99.90
34766;DHT22;20984;43.508;1.504;2022-11-22T02:13:06;6.60;99.90
34766;DHT22;20984;43.508;1.504;2022-11-22T02:15:34;6.70;99.90
34766;DHT22;20984;43.508;1.504;2022-11-22T02:18:00;6.60;99.90
34766;DHT22;20984;43.508;1.504;2022-11-22T02:20:26;6.60;99.90
34766;DHT22;20984;43.508;1.504;2022-11-22T02:28:06;6.60;99.90
34766;DHT22;20984;43.508;1.504;2022-11-22T02:30:34;6.50;99.90
34766;DHT22;20984;43.508;1.504;2022-11-22T02:33:00;6.40;99.90
34766;DHT22;20984;43.508;1.504;2022-11-22T02:35:28;6.40;99.90
34766;DHT22;20984;43.508;1.504;2022-11-22T02:37:56;6.40;99.90
34766;DHT22;20984;43.508;1.504;2022-11-22T02:40:23;6.40;99.90
34766;DHT22;20984;43.508;1.504;2022-11-22T02:42:54;6.40;99.90
34766;DHT22;20984;43.508;1.504;2022-11-22T02:45:23;6.40;99.90
34766;DHT22;20984;43.508;1.504;2022-11-22T02:47:49;6.40;99.90
34766;DHT22;20984;43.508;1.504;2022-11-22T02:50:14;6.30;99.90
34766;DHT22;20984;43.508;1.504;2022-11-22T02:52:40;6.30;99.90
34766;DHT22;20984;43.508;1.504;2022-11-22T02:55:06;6.20;99.90
34766;DHT22;20984;43.508;1.504;2022-11-22T02:57:32;6.20;99.90
34766;DHT22;20984;43.508;1.504;2022-11-22T02:59:58;6.20;99.90
34766;DHT22;20984;43.508;1.504;2022-11-22T03:02:24;6.20;99.90
34766;DHT22;20984;43.508;1.504;2022-11-22T03:04:50;6.20;99.90
34766;DHT22;20984;43.508;1.504;2022-11-22T03:07:16;6.20;99.90
34766;DHT22;20984;43.508;1.504;2022-11-22T03:09:42;6.20;99.90
34766;DHT22;20984;43.508;1.504;2022-11-22T03:12:08;6.20;99.90
34766;DHT22;20984;43.508;1.504;2022-11-22T03:14:34;6.30;99.90
34766;DHT22;20984;43.508;1.504;2022-11-22T03:17:00;6.20;99.90
34766;DHT22;20984;43.508;1.504;2022-11-22T03:19:25;6.30;99.90
34766;DHT22;20984;43.508;1.504;2022-11-22T03:21:51;6.30;99.90
34766;DHT22;20984;43.508;1.504;2022-11-22T03:24:17;6.30;99.90
34766;DHT22;20984;43.508;1.504;2022-11-22T03:26:48;6.40;99.90
34766;DHT22;20984;43.508;1.504;2022-11-22T03:29:15;6.40;99.90
34766;DHT22;20984;43.508;1.504;2022-11-22T03:31:41;6.40;99.90
34766;DHT22;20984;43.508;1.504;2022-11-22T03:34:07;6.40;99.90
34766;DHT22;20984;43.508;1.504;2022-11-22T03:36:33;6.40;99.90
34766;DHT22;20984;43.508;1.504;2022-11-22T03:38:59;6.40;99.90
34766;DHT22;20984;43.508;1.504;2022-11-22T03:41:25;6.30;99.90
34766;DHT22;20984;43.508;1.504;2022-11-22T03:43:51;6.30;99.90
34766;DHT22;20984;43.508;1.504;2022-11-22T03:46:17;6.30;99.90
34766;DHT22;20984;43.508;1.504;2022-11-22T03:48:46;6.30;99.90
34766;DHT22;20984;43.508;1.504;2022-11-22T03:51:12;6.30;99.90
34766;DHT22;20984;43.508;1.504;2022-11-22T03:53:38;6.30;99.90
34766;DHT22;20984;43.508;1.504;2022-11-22T03:56:05;6.30;99.90
34766;DHT22;20984;43.508;1.504;2022-11-22T03:58:31;6.30;99.90
34766;DHT22;20984;43.508;1.504;2022-11-22T04:00:57;6.30;99.90
34766;DHT22;20984;43.508;1.504;2022-11-22T04:03:23;6.30;99.90
34766;DHT22;20984;43.508;1.504;2022-11-22T04:05:49;6.20;99.90
34766;DHT22;20984;43.508;1.504;2022-11-22T04:08:15;6.20;99.90
34766;DHT22;20984;43.508;1.504;2022-11-22T04:10:40;6.20;99.90
34766;DHT22;20984;43.508;1.504;2022-11-22T04:13:06;6.30;99.90
34766;DHT22;20984;43.508;1.504;2022-11-22T04:15:32;6.30;99.90
34766;DHT22;20984;43.508;1.504;2022-11-22T04:17:58;6.40;99.90
34766;DHT22;20984;43.508;1.504;2022-11-22T04:20:26;6.40;99.90
34766;DHT22;20984;43.508;1.504;2022-11-22T04:23:16;6.40;99.90
34766;DHT22;20984;43.508;1.504;2022-11-22T04:25:45;6.40;99.90
34766;DHT22;20984;43.508;1.504;2022-11-22T04:28:13;6.40;99.90
34766;DHT22;20984;43.508;1.504;2022-11-22T04:30:39;6.50;99.90
34766;DHT22;20984;43.508;1.504;2022-11-22T04:33:24;6.50;99.90
34766;DHT22;20984;43.508;1.504;2022-11-22T04:35:50;6.50;99.90
34766;DHT22;20984;43.508;1.504;2022-11-22T04:38:17;6.50;99.90
34766;DHT22;20984;43.508;1.504;2022-11-22T04:40:44;6.50;99.90
34766;DHT22;20984;43.508;1.504;2022-11-22T04:43:19;6.50;99.90
34766;DHT22;20984;43.508;1.504;2022-11-22T04:46:04;6.50;99.90
34766;DHT22;20984;43.508;1.504;2022-11-22T04:48:30;6.50;99.90
34766;DHT22;20984;43.508;1.504;2022-11-22T04:50:56;6.50;99.90
34766;DHT22;20984;43.508;1.504;2022-11-22T04:53:40;6.50;99.90
34766;DHT22;20984;43.508;1.504;2022-11-22T04:56:06;6.40;99.90
34766;DHT22;20984;43.508;1.504;2022-11-22T04:58:32;6.40;99.90
34766;DHT22;20984;43.508;1.504;2022-11-22T05:00:57;6.40;99.90
34766;DHT22;20984;43.508;1.504;2022-11-22T05:03:23;6.30;99.90
34766;DHT22;20984;43.508;1.504;2022-11-22T05:05:49;6.40;99.90
34766;DHT22;20984;43.508;1.504;2022-11-22T05:08:15;6.30;99.90
34766;DHT22;20984;43.508;1.504;2022-11-22T05:10:41;6.30;99.90
34766;DHT22;20984;43.508;1.504;2022-11-22T05:13:36;6.40;99.90
34766;DHT22;20984;43.508;1.504;2022-11-22T05:16:04;6.40;99.90
34766;DHT22;20984;43.508;1.504;2022-11-22T05:18:31;6.40;99.90
34766;DHT22;20984;43.508;1.504;2022-11-22T05:20:57;6.50;99.90
34766;DHT22;20984;43.508;1.504;2022-11-22T05:23:25;6.40;99.90
34766;DHT22;20984;43.508;1.504;2022-11-22T05:26:10;6.50;99.90
34766;DHT22;20984;43.508;1.504;2022-11-22T05:28:37;6.50;99.90
34766;DHT22;20984;43.508;1.504;2022-11-22T05:31:13;6.60;99.90
34766;DHT22;20984;43.508;1.504;2022-11-22T05:33:40;6.60;99.90
34766;DHT22;20984;43.508;1.504;2022-11-22T05:36:07;6.60;99.90
34766;DHT22;20984;43.508;1.504;2022-11-22T05:38:34;6.60;99.90
34766;DHT22;20984;43.508;1.504;2022-11-22T05:41:10;6.60;99.90
34766;DHT22;20984;43.508;1.504;2022-11-22T05:43:36;6.60;99.90
34766;DHT22;20984;43.508;1.504;2022-11-22T05:46:08;6.60;99.90
34766;DHT22;20984;43.508;1.504;2022-11-22T05:48:37;6.50;99.90
34766;DHT22;20984;43.508;1.504;2022-11-22T05:51:09;6.50;99.90
34766;DHT22;20984;43.508;1.504;2022-11-22T05:53:36;6.50;99.90
34766;DHT22;20984;43.508;1.504;2022-11-22T05:56:15;6.50;99.90
34766;DHT22;20984;43.508;1.504;2022-11-22T05:58:41;6.50;99.90
34766;DHT22;20984;43.508;1.504;2022-11-22T06:01:10;6.50;99.90
34766;DHT22;20984;43.508;1.504;2022-11-22T06:03:36;6.60;99.90
34766;DHT22;20984;43.508;1.504;2022-11-22T06:06:03;6.60;99.90
34766;DHT22;20984;43.508;1.504;2022-11-22T06:08:32;6.60;99.90
34766;DHT22;20984;43.508;1.504;2022-11-22T06:11:09;6.60;99.90
34766;DHT22;20984;43.508;1.504;2022-11-22T06:13:39;6.60;99.90
34766;DHT22;20984;43.508;1.504;2022-11-22T06:16:07;6.70;99.90
34766;DHT22;20984;43.508;1.504;2022-11-22T06:18:33;6.70;99.90
34766;DHT22;20984;43.508;1.504;2022-11-22T06:21:00;6.70;99.90
34766;DHT22;20984;43.508;1.504;2022-11-22T06:23:27;6.60;99.90
34766;DHT22;20984;43.508;1.504;2022-11-22T06:26:01;6.70;99.90
34766;DHT22;20984;43.508;1.504;2022-11-22T06:28:28;6.70;99.90
34766;DHT22;20984;43.508;1.504;2022-11-22T06:31:05;6.60;99.90
34766;DHT22;20984;43.508;1.504;2022-11-22T06:33:31;6.50;99.90
34766;DHT22;20984;43.508;1.504;2022-11-22T06:36:05;6.50;99.90
34766;DHT22;20984;43.508;1.504;2022-11-22T06:38:32;6.50;99.90
34766;DHT22;20984;43.508;1.504;2022-11-22T06:41:02;6.40;99.90
34766;DHT22;20984;43.508;1.504;2022-11-22T06:43:29;6.40;99.90
34766;DHT22;20984;43.508;1.504;2022-11-22T06:45:56;6.40;99.90
34766;DHT22;20984;43.508;1.504;2022-11-22T06:48:22;6.40;99.90
34766;DHT22;20984;43.508;1.504;2022-11-22T06:50:48;6.50;99.90
34766;DHT22;20984;43.508;1.504;2022-11-22T06:53:14;6.60;99.90
34766;DHT22;20984;43.508;1.504;2022-11-22T06:55:40;6.60;99.90
34766;DHT22;20984;43.508;1.504;2022-11-22T06:58:06;6.60;99.90
34766;DHT22;20984;43.508;1.504;2022-11-22T07:00:32;6.70;99.90
34766;DHT22;20984;43.508;1.504;2022-11-22T07:02:58;6.70;99.90
34766;DHT22;20984;43.508;1.504;2022-11-22T07:05:23;6.70;99.90
34766;DHT22;20984;43.508;1.504;2022-11-22T07:07:49;6.60;99.90
34766;DHT22;20984;43.508;1.504;2022-11-22T07:10:15;6.60;99.90
34766;DHT22;20984;43.508;1.504;2022-11-22T07:12:41;6.60;99.90
34766;DHT22;20984;43.508;1.504;2022-11-22T07:15:07;6.60;99.90
34766;DHT22;20984;43.508;1.504;2022-11-22T07:17:33;6.60;99.90
34766;DHT22;20984;43.508;1.504;2022-11-22T07:19:59;6.60;99.90
34766;DHT22;20984;43.508;1.504;2022-11-22T07:22:24;6.60;99.90
34766;DHT22;20984;43.508;1.504;2022-11-22T07:24:50;6.60;99.90
34766;DHT22;20984;43.508;1.504;2022-11-22T07:27:16;6.50;99.90
34766;DHT22;20984;43.508;1.504;2022-11-22T07:29:42;6.50;99.90
34766;DHT22;20984;43.508;1.504;2022-11-22T07:32:08;6.50;99.90
34766;DHT22;20984;43.508;1.504;2022-11-22T07:34:33;6.60;99.90
34766;DHT22;20984;43.508;1.504;2022-11-22T07:36:59;6.60;99.90
34766;DHT22;20984;43.508;1.504;2022-11-22T07:39:25;6.60;99.90
34766;DHT22;20984;43.508;1.504;2022-11-22T07:41:51;6.60;99.90
34766;DHT22;20984;43.508;1.504;2022-11-22T07:44:17;6.60;99.90
34766;DHT22;20984;43.508;1.504;2022-11-22T07:46:42;6.60;99.90
34766;DHT22;20984;43.508;1.504;2022-11-22T07:49:08;6.50;99.90
34766;DHT22;20984;43.508;1.504;2022-11-22T07:51:34;6.50;99.90
34766;DHT22;20984;43.508;1.504;2022-11-22T07:54:00;6.50;99.90
34766;DHT22;20984;43.508;1.504;2022-11-22T07:56:26;6.40;99.90
34766;DHT22;20984;43.508;1.504;2022-11-22T07:58:52;6.40;99.90
34766;DHT22;20984;43.508;1.504;2022-11-22T08:01:18;6.40;99.90
34766;DHT22;20984;43.508;1.504;2022-11-22T08:03:44;6.40;99.90
34766;DHT22;20984;43.508;1.504;2022-11-22T08:06:12;6.40;99.90
34766;DHT22;20984;43.508;1.504;2022-11-22T08:08:38;6.40;99.90
34766;DHT22;20984;43.508;1.504;2022-11-22T08:11:05;6.40;99.90
34766;DHT22;20984;43.508;1.504;2022-11-22T08:13:31;6.40;99.90
34766;DHT22;20984;43.508;1.504;2022-11-22T08:16:05;6.40;99.90
34766;DHT22;20984;43.508;1.504;2022-11-22T08:18:32;6.40;99.90
34766;DHT22;20984;43.508;1.504;2022-11-22T08:21:06;6.40;99.90
34766;DHT22;20984;43.508;1.504;2022-11-22T08:23:33;6.50;99.90
34766;DHT22;20984;43.508;1.504;2022-11-22T08:25:59;6.50;99.90
34766;DHT22;20984;43.508;1.504;2022-11-22T08:28:25;6.60;99.90
34766;DHT22;20984;43.508;1.504;2022-11-22T08:30:51;6.70;99.90
34766;DHT22;20984;43.508;1.504;2022-11-22T08:33:16;6.70;99.90
34766;DHT22;20984;43.508;1.504;2022-11-22T08:35:42;6.90;99.90
34766;DHT22;20984;43.508;1.504;2022-11-22T08:38:08;6.90;99.90
34766;DHT22;20984;43.508;1.504;2022-11-22T08:40:34;7.10;99.90
34766;DHT22;20984;43.508;1.504;2022-11-22T08:43:00;7.20;99.90
34766;DHT22;20984;43.508;1.504;2022-11-22T08:45:25;7.30;99.90
34766;DHT22;20984;43.508;1.504;2022-11-22T08:47:51;7.50;99.90
34766;DHT22;20984;43.508;1.504;2022-11-22T08:50:17;7.50;99.90
34766;DHT22;20984;43.508;1.504;2022-11-22T08:52:43;7.60;99.90
34766;DHT22;20984;43.508;1.504;2022-11-22T08:55:09;7.60;99.90
34766;DHT22;20984;43.508;1.504;2022-11-22T08:57:35;7.70;99.90
34766;DHT22;20984;43.508;1.504;2022-11-22T09:00:01;7.70;99.90
34766;DHT22;20984;43.508;1.504;2022-11-22T09:02:27;7.70;99.90
34766;DHT22;20984;43.508;1.504;2022-11-22T09:04:52;7.70;99.90
34766;DHT22;20984;43.508;1.504;2022-11-22T09:07:18;7.70;99.90
34766;DHT22;20984;43.508;1.504;2022-11-22T09:09:44;7.80;99.90
34766;DHT22;20984;43.508;1.504;2022-11-22T09:12:10;8.00;99.90
34766;DHT22;20984;43.508;1.504;2022-11-22T09:14:36;8.10;99.90
34766;DHT22;20984;43.508;1.504;2022-11-22T09:17:01;8.20;99.90
34766;DHT22;20984;43.508;1.504;2022-11-22T09:19:27;8.20;99.90
34766;DHT22;20984;43.508;1.504;2022-11-22T09:21:53;8.20;99.90
34766;DHT22;20984;43.508;1.504;2022-11-22T09:24:19;8.30;99.90
34766;DHT22;20984;43.508;1.504;2022-11-22T09:26:45;8.30;99.90
34766;DHT22;20984;43.508;1.504;2022-11-22T09:29:10;8.30;99.90
34766;DHT22;20984;43.508;1.504;2022-11-22T09:31:36;8.30;99.90
34766;DHT22;20984;43.508;1.504;2022-11-22T09:34:03;8.30;99.90
34766;DHT22;20984;43.508;1.504;2022-11-22T09:36:29;8.30;99.90
34766;DHT22;20984;43.508;1.504;2022-11-22T09:38:55;8.20;99.90
34766;DHT22;20984;43.508;1.504;2022-11-22T09:41:44;8.30;99.90
34766;DHT22;20984;43.508;1.504;2022-11-22T09:52:07;8.50;99.90
34766;DHT22;20984;43.508;1.504;2022-11-22T09:54:43;8.60;99.90
34766;DHT22;20984;43.508;1.504;2022-11-22T09:57:34;8.60;99.90
34766;DHT22;20984;43.508;1.504;2022-11-22T10:00:14;8.70;99.90
34766;DHT22;20984;43.508;1.504;2022-11-22T10:02:44;8.90;99.90
34766;DHT22;20984;43.508;1.504;2022-11-22T10:05:21;9.10;99.90
34766;DHT22;20984;43.508;1.504;2022-11-22T10:11:03;9.00;99.90
34766;DHT22;20984;43.508;1.504;2022-11-22T10:13:40;9.00;99.90
34766;DHT22;20984;43.508;1.504;2022-11-22T10:16:41;8.90;99.90
34766;DHT22;20984;43.508;1.504;2022-11-22T10:19:15;9.00;99.90
34766;DHT22;20984;43.508;1.504;2022-11-22T10:21:43;9.00;99.90
34766;DHT22;20984;43.508;1.504;2022-11-22T10:24:14;9.10;99.90
34766;DHT22;20984;43.508;1.504;2022-11-22T10:26:41;9.10;99.90
34766;DHT22;20984;43.508;1.504;2022-11-22T10:44:11;9.10;99.90
34766;DHT22;20984;43.508;1.504;2022-11-22T11:00:28;9.10;99.90
34766;DHT22;20984;43.508;1.504;2022-11-22T11:03:11;9.20;99.90
34766;DHT22;20984;43.508;1.504;2022-11-22T11:05:49;9.30;99.90
34766;DHT22;20984;43.508;1.504;2022-11-22T11:08:50;9.30;99.90
34766;DHT22;20984;43.508;1.504;2022-11-22T11:11:15;9.40;99.90
34766;DHT22;20984;43.508;1.504;2022-11-22T11:13:48;9.40;99.90
34766;DHT22;20984;43.508;1.504;2022-11-22T11:16:19;9.30;99.90
34766;DHT22;20984;43.508;1.504;2022-11-22T11:18:59;9.30;99.90
34766;DHT22;20984;43.508;1.504;2022-11-22T11:21:29;9.30;99.90
34766;DHT22;20984;43.508;1.504;2022-11-22T11:23:55;9.30;99.90
34766;DHT22;20984;43.508;1.504;2022-11-22T11:28:46;9.30;99.90
34766;DHT22;20984;43.508;1.504;2022-11-22T11:31:12;9.30;99.90
34766;DHT22;20984;43.508;1.504;2022-11-22T11:33:41;9.30;99.90
34766;DHT22;20984;43.508;1.504;2022-11-22T11:36:22;9.30;99.90
34766;DHT22;20984;43.508;1.504;2022-11-22T11:38:54;9.40;99.90
34766;DHT22;20984;43.508;1.504;2022-11-22T11:44:03;9.40;99.90
34766;DHT22;20984;43.508;1.504;2022-11-22T11:49:16;9.40;99.90
34766;DHT22;20984;43.508;1.504;2022-11-22T11:51:44;9.40;99.90
34766;DHT22;20984;43.508;1.504;2022-11-22T11:56:44;9.40;99.90
34766;DHT22;20984;43.508;1.504;2022-11-22T11:59:14;9.40;99.90
34766;DHT22;20984;43.508;1.504;2022-11-22T12:02:18;9.50;99.90
34766;DHT22;20984;43.508;1.504;2022-11-22T12:05:01;9.50;99.90
34766;DHT22;20984;43.508;1.504;2022-11-22T12:10:02;9.40;99.90
34766;DHT22;20984;43.508;1.504;2022-11-22T12:15:17;9.30;99.90
34766;DHT22;20984;43.508;1.504;2022-11-22T12:17:53;9.30;99.90
34766;DHT22;20984;43.508;1.504;2022-11-22T12:20:29;9.20;99.90
34766;DHT22;20984;43.508;1.504;2022-11-22T12:25:46;9.10;99.90
34766;DHT22;20984;43.508;1.504;2022-11-22T12:28:26;9.10;99.90
34766;DHT22;20984;43.508;1.504;2022-11-22T12:31:18;9.20;99.90
34766;DHT22;20984;43.508;1.504;2022-11-22T12:33:51;9.20;99.90
34766;DHT22;20984;43.508;1.504;2022-11-22T12:36:32;9.20;99.90
34766;DHT22;20984;43.508;1.504;2022-11-22T12:39:02;9.20;99.90
34766;DHT22;20984;43.508;1.504;2022-11-22T12:41:31;9.20;99.90
34766;DHT22;20984;43.508;1.504;2022-11-22T12:44:00;9.20;99.90
34766;DHT22;20984;43.508;1.504;2022-11-22T12:46:39;9.20;99.90
34766;DHT22;20984;43.508;1.504;2022-11-22T12:52:22;9.30;99.90
34766;DHT22;20984;43.508;1.504;2022-11-22T12:57:39;9.30;99.90
34766;DHT22;20984;43.508;1.504;2022-11-22T13:00:21;9.30;99.90
34766;DHT22;20984;43.508;1.504;2022-11-22T13:03:03;9.20;99.90
34766;DHT22;20984;43.508;1.504;2022-11-22T13:05:39;9.20;99.90
34766;DHT22;20984;43.508;1.504;2022-11-22T13:08:15;9.20;99.90
34766;DHT22;20984;43.508;1.504;2022-11-22T13:11:14;9.20;99.90
34766;DHT22;20984;43.508;1.504;2022-11-22T13:13:47;9.20;99.90
34766;DHT22;20984;43.508;1.504;2022-11-22T13:16:14;9.10;99.90
34766;DHT22;20984;43.508;1.504;2022-11-22T13:18:43;9.20;99.90
34766;DHT22;20984;43.508;1.504;2022-11-22T13:24:19;9.20;99.90
34766;DHT22;20984;43.508;1.504;2022-11-22T13:26:57;9.10;99.90
34766;DHT22;20984;43.508;1.504;2022-11-22T13:29:26;9.10;99.90
34766;DHT22;20984;43.508;1.504;2022-11-22T13:32:28;9.10;99.90
34766;DHT22;20984;43.508;1.504;2022-11-22T13:37:45;9.10;99.90
34766;DHT22;20984;43.508;1.504;2022-11-22T13:42:40;9.20;99.90
34766;DHT22;20984;43.508;1.504;2022-11-22T13:45:12;9.20;99.90
34766;DHT22;20984;43.508;1.504;2022-11-22T13:47:43;9.20;99.90
34766;DHT22;20984;43.508;1.504;2022-11-22T13:55:45;9.30;99.90
34766;DHT22;20984;43.508;1.504;2022-11-22T14:00:49;9.30;99.90
34766;DHT22;20984;43.508;1.504;2022-11-22T14:05:52;9.30;99.90
34766;DHT22;20984;43.508;1.504;2022-11-22T14:08:38;9.40;99.90
34766;DHT22;20984;43.508;1.504;2022-11-22T14:16:45;9.50;99.90
34766;DHT22;20984;43.508;1.504;2022-11-22T14:19:54;9.60;99.90
34766;DHT22;20984;43.508;1.504;2022-11-22T14:22:27;9.70;99.90
34766;DHT22;20984;43.508;1.504;2022-11-22T14:25:08;9.70;99.90
34766;DHT22;20984;43.508;1.504;2022-11-22T14:30:55;9.90;99.90
34766;DHT22;20984;43.508;1.504;2022-11-22T14:33:24;10.00;99.90
34766;DHT22;20984;43.508;1.504;2022-11-22T14:38:35;9.90;99.90
34766;DHT22;20984;43.508;1.504;2022-11-22T14:44:30;9.90;99.90
34766;DHT22;20984;43.508;1.504;2022-11-22T14:47:09;9.80;99.90
34766;DHT22;20984;43.508;1.504;2022-11-22T14:49:47;9.70;99.90
34766;DHT22;20984;43.508;1.504;2022-11-22T14:52:23;9.70;99.90
34766;DHT22;20984;43.508;1.504;2022-11-22T14:54:56;9.60;99.90
34766;DHT22;20984;43.508;1.504;2022-11-22T14:57:25;9.60;99.90
34766;DHT22;20984;43.508;1.504;2022-11-22T15:00:16;9.60;99.90
34766;DHT22;20984;43.508;1.504;2022-11-22T15:16:02;9.60;99.90
34766;DHT22;20984;43.508;1.504;2022-11-22T15:18:31;9.60;99.90
34766;DHT22;20984;43.508;1.504;2022-11-22T15:20:57;9.60;99.90
34766;DHT22;20984;43.508;1.504;2022-11-22T15:23:25;9.60;99.90
34766;DHT22;20984;43.508;1.504;2022-11-22T15:26:15;9.50;99.90
34766;DHT22;20984;43.508;1.504;2022-11-22T15:28:47;9.50;99.90
34766;DHT22;20984;43.508;1.504;2022-11-22T15:31:15;9.50;99.90
34766;DHT22;20984;43.508;1.504;2022-11-22T15:33:50;9.50;99.90
34766;DHT22;20984;43.508;1.504;2022-11-22T15:39:17;9.40;99.90
34766;DHT22;20984;43.508;1.504;2022-11-22T15:41:48;9.50;99.90
34766;DHT22;20984;43.508;1.504;2022-11-22T15:44:15;9.50;99.90
34766;DHT22;20984;43.508;1.504;2022-11-22T15:46:42;9.50;99.90
34766;DHT22;20984;43.508;1.504;2022-11-22T15:49:16;9.50;99.90
34766;DHT22;20984;43.508;1.504;2022-11-22T15:51:50;9.50;99.90
34766;DHT22;20984;43.508;1.504;2022-11-22T15:54:22;9.50;99.90
34766;DHT22;20984;43.508;1.504;2022-11-22T15:57:00;9.50;99.90
34766;DHT22;20984;43.508;1.504;2022-11-22T15:59:35;9.50;99.90
34766;DHT22;20984;43.508;1.504;2022-11-22T16:02:13;9.50;99.90
34766;DHT22;20984;43.508;1.504;2022-11-22T16:05:02;9.50;99.90
34766;DHT22;20984;43.508;1.504;2022-11-22T16:07:55;9.50;99.90
34766;DHT22;20984;43.508;1.504;2022-11-22T16:10:24;9.50;99.90
34766;DHT22;20984;43.508;1.504;2022-11-22T16:12:51;9.40;99.90
34766;DHT22;20984;43.508;1.504;2022-11-22T16:17:51;9.30;99.90
34766;DHT22;20984;43.508;1.504;2022-11-22T16:20:29;9.20;99.90
34766;DHT22;20984;43.508;1.504;2022-11-22T16:25:33;9.00;99.90
34766;DHT22;20984;43.508;1.504;2022-11-22T16:28:00;9.00;99.90
34766;DHT22;20984;43.508;1.504;2022-11-22T16:30:26;8.90;99.90
34766;DHT22;20984;43.508;1.504;2022-11-22T16:32:52;8.80;99.90
34766;DHT22;20984;43.508;1.504;2022-11-22T16:35:20;8.70;99.90
34766;DHT22;20984;43.508;1.504;2022-11-22T16:37:47;8.70;99.90
34766;DHT22;20984;43.508;1.504;2022-11-22T16:40:13;8.70;99.90
34766;DHT22;20984;43.508;1.504;2022-11-22T16:42:40;8.60;99.90
34766;DHT22;20984;43.508;1.504;2022-11-22T16:45:17;8.60;99.90
34766;DHT22;20984;43.508;1.504;2022-11-22T16:47:44;8.50;99.90
34766;DHT22;20984;43.508;1.504;2022-11-22T16:50:14;8.60;99.90
34766;DHT22;20984;43.508;1.504;2022-11-22T16:52:41;8.60;99.90
34766;DHT22;20984;43.508;1.504;2022-11-22T16:55:16;8.50;99.90
34766;DHT22;20984;43.508;1.504;2022-11-22T16:57:42;8.50;99.90
34766;DHT22;20984;43.508;1.504;2022-11-22T17:00:09;8.50;99.90
34766;DHT22;20984;43.508;1.504;2022-11-22T17:02:36;8.50;99.90
34766;DHT22;20984;43.508;1.504;2022-11-22T17:05:03;8.60;99.90
34766;DHT22;20984;43.508;1.504;2022-11-22T17:07:29;8.60;99.90
34766;DHT22;20984;43.508;1.504;2022-11-22T17:09:55;8.60;99.90
34766;DHT22;20984;43.508;1.504;2022-11-22T17:12:23;8.50;99.90
34766;DHT22;20984;43.508;1.504;2022-11-22T17:14:50;8.50;99.90
34766;DHT22;20984;43.508;1.504;2022-11-22T17:17:16;8.50;99.90
34766;DHT22;20984;43.508;1.504;2022-11-22T17:19:42;8.50;99.90
34766;DHT22;20984;43.508;1.504;2022-11-22T17:22:10;8.50;99.90
34766;DHT22;20984;43.508;1.504;2022-11-22T17:24:36;8.50;99.90
34766;DHT22;20984;43.508;1.504;2022-11-22T17:27:02;8.50;99.90
34766;DHT22;20984;43.508;1.504;2022-11-22T17:29:28;8.50;99.90
34766;DHT22;20984;43.508;1.504;2022-11-22T17:31:54;8.50;99.90
34766;DHT22;20984;43.508;1.504;2022-11-22T17:34:20;8.50;99.90
34766;DHT22;20984;43.508;1.504;2022-11-22T17:36:45;8.50;99.90
34766;DHT22;20984;43.508;1.504;2022-11-22T17:39:12;8.40;99.90
34766;DHT22;20984;43.508;1.504;2022-11-22T17:41:39;8.40;99.90
34766;DHT22;20984;43.508;1.504;2022-11-22T17:44:06;8.50;99.90
34766;DHT22;20984;43.508;1.504;2022-11-22T17:46:34;8.40;99.90
34766;DHT22;20984;43.508;1.504;2022-11-22T17:49:02;8.50;99.90
34766;DHT22;20984;43.508;1.504;2022-11-22T17:51:29;8.40;99.90
34766;DHT22;20984;43.508;1.504;2022-11-22T17:53:55;8.40;99.90
34766;DHT22;20984;43.508;1.504;2022-11-22T17:56:23;8.40;99.90
34766;DHT22;20984;43.508;1.504;2022-11-22T17:58:49;8.40;99.90
34766;DHT22;20984;43.508;1.504;2022-11-22T18:01:20;8.40;99.90
34766;DHT22;20984;43.508;1.504;2022-11-22T18:03:47;8.40;99.90
34766;DHT22;20984;43.508;1.504;2022-11-22T18:06:14;8.40;99.90